sensor_id;sensor_type;location;lat;lon;timestamp;P1;durP1;ratioP1;P2;durP2;ratioP2
84638;SDS011;74869;51.924;5.712;2024-01-11T00:01:57;19.42;;;8.93;;
84638;SDS011;74869;51.924;5.712;2024-01-11T00:04:22;21.43;;;9.40;;
84638;SDS011;74869;51.924;5.712;2024-01-11T00:06:48;21.73;;;9.83;;
84638;SDS011;74869;51.924;5.712;2024-01-11T00:09:14;20.63;;;9.95;;
84638;SDS011;74869;51.924;5.712;2024-01-11T00:11:40;20.35;;;9.63;;
84638;SDS011;74869;51.924;5.712;2024-01-11T00:14:05;22.47;;;10.37;;
84638;SDS011;74869;51.924;5.712;2024-01-11T00:16:30;18.88;;;9.27;;
84638;SDS011;74869;51.924;5.712;2024-01-11T00:18:55;22.83;;;9.23;;
84638;SDS011;74869;51.924;5.712;2024-01-11T00:21:21;18.13;;;8.50;;
84638;SDS011;74869;51.924;5.712;2024-01-11T00:23:46;20.07;;;9.00;;
84638;SDS011;74869;51.924;5.712;2024-01-11T00:26:12;15.70;;;8.33;;
84638;SDS011;74869;51.924;5.712;2024-01-11T00:28:38;21.13;;;9.45;;
84638;SDS011;74869;51.924;5.712;2024-01-11T00:31:03;18.55;;;8.63;;
84638;SDS011;74869;51.924;5.712;2024-01-11T00:33:29;18.85;;;8.95;;
84638;SDS011;74869;51.924;5.712;2024-01-11T00:35:55;20.05;;;9.68;;
84638;SDS011;74869;51.924;5.712;2024-01-11T00:38:20;22.23;;;10.20;;
84638;SDS011;74869;51.924;5.712;2024-01-11T00:40:45;19.77;;;9.00;;
84638;SDS011;74869;51.924;5.712;2024-01-11T00:43:11;20.03;;;9.80;;
84638;SDS011;74869;51.924;5.712;2024-01-11T00:45:36;19.05;;;7.60;;
84638;SDS011;74869;51.924;5.712;2024-01-11T00:48:02;19.98;;;8.90;;
84638;SDS011;74869;51.924;5.712;2024-01-11T00:50:28;21.98;;;10.07;;
84638;SDS011;74869;51.924;5.712;2024-01-11T00:52:53;19.58;;;8.70;;
84638;SDS011;74869;51.924;5.712;2024-01-11T00:55:19;16.83;;;8.90;;
84638;SDS011;74869;51.924;5.712;2024-01-11T00:57:44;15.30;;;7.77;;
84638;SDS011;74869;51.924;5.712;2024-01-11T01:00:10;22.27;;;9.02;;
84638;SDS011;74869;51.924;5.712;2024-01-11T01:02:39;14.55;;;7.55;;
84638;SDS011;74869;51.924;5.712;2024-01-11T01:05:05;17.67;;;8.75;;
84638;SDS011;74869;51.924;5.712;2024-01-11T01:07:31;17.80;;;8.70;;
84638;SDS011;74869;51.924;5.712;2024-01-11T01:09:56;15.83;;;8.30;;
84638;SDS011;74869;51.924;5.712;2024-01-11T01:12:21;16.80;;;8.30;;
84638;SDS011;74869;51.924;5.712;2024-01-11T01:14:47;18.77;;;8.68;;
84638;SDS011;74869;51.924;5.712;2024-01-11T01:17:12;19.73;;;9.00;;
84638;SDS011;74869;51.924;5.712;2024-01-11T01:19:37;16.63;;;8.17;;
84638;SDS011;74869;51.924;5.712;2024-01-11T01:22:03;18.97;;;8.43;;
84638;SDS011;74869;51.924;5.712;2024-01-11T01:24:28;18.47;;;7.90;;
84638;SDS011;74869;51.924;5.712;2024-01-11T01:26:53;15.73;;;7.77;;
84638;SDS011;74869;51.924;5.712;2024-01-11T01:29:19;20.40;;;8.97;;
84638;SDS011;74869;51.924;5.712;2024-01-11T01:31:44;20.17;;;8.50;;
84638;SDS011;74869;51.924;5.712;2024-01-11T01:34:09;18.37;;;7.70;;
84638;SDS011;74869;51.924;5.712;2024-01-11T01:36:35;18.90;;;8.47;;
84638;SDS011;74869;51.924;5.712;2024-01-11T01:39:00;14.97;;;7.53;;
84638;SDS011;74869;51.924;5.712;2024-01-11T01:41:25;19.70;;;7.70;;
84638;SDS011;74869;51.924;5.712;2024-01-11T01:43:51;17.03;;;8.53;;
84638;SDS011;74869;51.924;5.712;2024-01-11T01:46:19;17.08;;;7.70;;
84638;SDS011;74869;51.924;5.712;2024-01-11T01:51:12;13.33;;;7.77;;
84638;SDS011;74869;51.924;5.712;2024-01-11T01:53:37;16.48;;;6.82;;
84638;SDS011;74869;51.924;5.712;2024-01-11T01:56:02;16.00;;;7.38;;
84638;SDS011;74869;51.924;5.712;2024-01-11T01:58:29;13.60;;;7.68;;
84638;SDS011;74869;51.924;5.712;2024-01-11T02:00:54;15.98;;;7.43;;
84638;SDS011;74869;51.924;5.712;2024-01-11T02:03:20;15.25;;;7.13;;
84638;SDS011;74869;51.924;5.712;2024-01-11T02:05:45;17.00;;;9.47;;
84638;SDS011;74869;51.924;5.712;2024-01-11T02:08:12;14.10;;;7.55;;
84638;SDS011;74869;51.924;5.712;2024-01-11T02:10:41;19.70;;;8.50;;
84638;SDS011;74869;51.924;5.712;2024-01-11T02:13:07;20.45;;;9.10;;
84638;SDS011;74869;51.924;5.712;2024-01-11T02:15:32;20.27;;;9.05;;
84638;SDS011;74869;51.924;5.712;2024-01-11T02:17:58;17.90;;;8.05;;
84638;SDS011;74869;51.924;5.712;2024-01-11T02:20:23;19.55;;;7.70;;
84638;SDS011;74869;51.924;5.712;2024-01-11T02:22:50;17.73;;;7.95;;
84638;SDS011;74869;51.924;5.712;2024-01-11T02:25:21;15.82;;;7.88;;
84638;SDS011;74869;51.924;5.712;2024-01-11T02:27:49;18.47;;;7.80;;
84638;SDS011;74869;51.924;5.712;2024-01-11T02:30:16;14.95;;;7.43;;
84638;SDS011;74869;51.924;5.712;2024-01-11T02:32:45;18.00;;;8.60;;
84638;SDS011;74869;51.924;5.712;2024-01-11T02:37:40;14.77;;;6.25;;
84638;SDS011;74869;51.924;5.712;2024-01-11T02:40:07;15.02;;;7.03;;
84638;SDS011;74869;51.924;5.712;2024-01-11T02:42:33;19.35;;;8.68;;
84638;SDS011;74869;51.924;5.712;2024-01-11T02:44:59;16.23;;;8.35;;
84638;SDS011;74869;51.924;5.712;2024-01-11T02:47:25;17.02;;;8.77;;
84638;SDS011;74869;51.924;5.712;2024-01-11T02:49:50;18.43;;;8.50;;
84638;SDS011;74869;51.924;5.712;2024-01-11T02:52:16;16.85;;;7.85;;
84638;SDS011;74869;51.924;5.712;2024-01-11T02:54:41;17.10;;;8.05;;
84638;SDS011;74869;51.924;5.712;2024-01-11T02:57:07;17.73;;;7.97;;
84638;SDS011;74869;51.924;5.712;2024-01-11T02:59:32;21.07;;;9.90;;
84638;SDS011;74869;51.924;5.712;2024-01-11T03:01:57;14.48;;;7.45;;
84638;SDS011;74869;51.924;5.712;2024-01-11T03:04:23;16.52;;;7.97;;
84638;SDS011;74869;51.924;5.712;2024-01-11T03:06:48;15.88;;;8.05;;
84638;SDS011;74869;51.924;5.712;2024-01-11T03:09:13;13.13;;;6.83;;
84638;SDS011;74869;51.924;5.712;2024-01-11T03:11:39;14.63;;;6.37;;
84638;SDS011;74869;51.924;5.712;2024-01-11T03:14:04;13.23;;;7.40;;
84638;SDS011;74869;51.924;5.712;2024-01-11T03:16:29;19.38;;;8.45;;
84638;SDS011;74869;51.924;5.712;2024-01-11T03:18:55;14.57;;;7.97;;
84638;SDS011;74869;51.924;5.712;2024-01-11T03:21:20;16.73;;;8.30;;
84638;SDS011;74869;51.924;5.712;2024-01-11T03:23:45;14.80;;;7.13;;
84638;SDS011;74869;51.924;5.712;2024-01-11T03:26:17;17.53;;;7.13;;
84638;SDS011;74869;51.924;5.712;2024-01-11T03:28:43;16.83;;;7.90;;
84638;SDS011;74869;51.924;5.712;2024-01-11T03:31:09;17.77;;;7.82;;
84638;SDS011;74869;51.924;5.712;2024-01-11T03:33:34;18.80;;;8.45;;
84638;SDS011;74869;51.924;5.712;2024-01-11T03:36:05;22.10;;;8.10;;
84638;SDS011;74869;51.924;5.712;2024-01-11T03:38:32;16.63;;;7.70;;
84638;SDS011;74869;51.924;5.712;2024-01-11T03:40:57;15.27;;;8.50;;
84638;SDS011;74869;51.924;5.712;2024-01-11T03:43:23;13.97;;;7.60;;
84638;SDS011;74869;51.924;5.712;2024-01-11T03:45:48;16.80;;;7.87;;
84638;SDS011;74869;51.924;5.712;2024-01-11T03:48:13;23.47;;;11.20;;
84638;SDS011;74869;51.924;5.712;2024-01-11T03:50:39;18.70;;;7.13;;
84638;SDS011;74869;51.924;5.712;2024-01-11T03:53:04;18.17;;;9.13;;
84638;SDS011;74869;51.924;5.712;2024-01-11T03:55:29;18.83;;;8.00;;
84638;SDS011;74869;51.924;5.712;2024-01-11T03:57:54;17.50;;;8.80;;
84638;SDS011;74869;51.924;5.712;2024-01-11T04:00:20;17.80;;;7.47;;
84638;SDS011;74869;51.924;5.712;2024-01-11T04:02:45;19.55;;;9.10;;
84638;SDS011;74869;51.924;5.712;2024-01-11T04:05:11;20.33;;;9.53;;
84638;SDS011;74869;51.924;5.712;2024-01-11T04:07:36;20.60;;;9.90;;
84638;SDS011;74869;51.924;5.712;2024-01-11T04:10:01;14.17;;;8.60;;
84638;SDS011;74869;51.924;5.712;2024-01-11T04:12:27;17.37;;;7.67;;
84638;SDS011;74869;51.924;5.712;2024-01-11T04:14:52;18.50;;;9.17;;
84638;SDS011;74869;51.924;5.712;2024-01-11T04:17:17;16.63;;;7.90;;
84638;SDS011;74869;51.924;5.712;2024-01-11T04:19:43;20.27;;;8.87;;
84638;SDS011;74869;51.924;5.712;2024-01-11T04:22:08;18.87;;;8.07;;
84638;SDS011;74869;51.924;5.712;2024-01-11T04:24:33;17.98;;;8.25;;
84638;SDS011;74869;51.924;5.712;2024-01-11T04:26:59;13.67;;;6.97;;
84638;SDS011;74869;51.924;5.712;2024-01-11T04:29:24;18.90;;;7.83;;
84638;SDS011;74869;51.924;5.712;2024-01-11T04:31:49;17.00;;;8.00;;
84638;SDS011;74869;51.924;5.712;2024-01-11T04:34:15;15.33;;;8.87;;
84638;SDS011;74869;51.924;5.712;2024-01-11T04:36:40;16.33;;;8.07;;
84638;SDS011;74869;51.924;5.712;2024-01-11T04:39:05;17.83;;;7.77;;
84638;SDS011;74869;51.924;5.712;2024-01-11T04:41:32;17.23;;;8.00;;
84638;SDS011;74869;51.924;5.712;2024-01-11T04:44:00;23.15;;;11.80;;
84638;SDS011;74869;51.924;5.712;2024-01-11T04:46:26;18.47;;;9.43;;
84638;SDS011;74869;51.924;5.712;2024-01-11T04:48:51;16.67;;;7.63;;
84638;SDS011;74869;51.924;5.712;2024-01-11T04:51:17;18.63;;;9.70;;
84638;SDS011;74869;51.924;5.712;2024-01-11T04:53:43;19.58;;;8.98;;
84638;SDS011;74869;51.924;5.712;2024-01-11T04:56:10;20.75;;;9.35;;
84638;SDS011;74869;51.924;5.712;2024-01-11T04:58:38;19.55;;;9.13;;
84638;SDS011;74869;51.924;5.712;2024-01-11T05:01:05;23.77;;;9.95;;
84638;SDS011;74869;51.924;5.712;2024-01-11T05:03:31;21.13;;;9.35;;
84638;SDS011;74869;51.924;5.712;2024-01-11T05:06:00;18.80;;;10.25;;
84638;SDS011;74869;51.924;5.712;2024-01-11T05:08:26;18.23;;;8.73;;
84638;SDS011;74869;51.924;5.712;2024-01-11T05:10:52;15.02;;;8.57;;
84638;SDS011;74869;51.924;5.712;2024-01-11T05:13:18;20.27;;;9.20;;
84638;SDS011;74869;51.924;5.712;2024-01-11T05:15:43;22.20;;;9.15;;
84638;SDS011;74869;51.924;5.712;2024-01-11T05:18:09;27.90;;;11.50;;
84638;SDS011;74869;51.924;5.712;2024-01-11T05:20:34;23.38;;;9.88;;
84638;SDS011;74869;51.924;5.712;2024-01-11T05:22:59;18.67;;;9.80;;
84638;SDS011;74869;51.924;5.712;2024-01-11T05:25:26;19.38;;;9.15;;
84638;SDS011;74869;51.924;5.712;2024-01-11T05:27:51;19.40;;;10.32;;
84638;SDS011;74869;51.924;5.712;2024-01-11T05:30:17;18.30;;;9.17;;
84638;SDS011;74869;51.924;5.712;2024-01-11T05:32:42;20.17;;;9.80;;
84638;SDS011;74869;51.924;5.712;2024-01-11T05:35:07;22.00;;;10.57;;
84638;SDS011;74869;51.924;5.712;2024-01-11T05:37:33;24.90;;;10.77;;
84638;SDS011;74869;51.924;5.712;2024-01-11T05:39:58;26.27;;;14.87;;
84638;SDS011;74869;51.924;5.712;2024-01-11T05:42:23;25.13;;;14.00;;
84638;SDS011;74869;51.924;5.712;2024-01-11T05:44:50;26.25;;;12.45;;
84638;SDS011;74869;51.924;5.712;2024-01-11T05:47:16;25.05;;;11.65;;
84638;SDS011;74869;51.924;5.712;2024-01-11T05:49:41;21.27;;;10.23;;
84638;SDS011;74869;51.924;5.712;2024-01-11T05:52:07;22.50;;;10.27;;
84638;SDS011;74869;51.924;5.712;2024-01-11T05:54:32;23.37;;;10.17;;
84638;SDS011;74869;51.924;5.712;2024-01-11T05:56:57;21.43;;;9.13;;
84638;SDS011;74869;51.924;5.712;2024-01-11T05:59:23;19.85;;;9.52;;
84638;SDS011;74869;51.924;5.712;2024-01-11T06:01:48;23.80;;;9.73;;
84638;SDS011;74869;51.924;5.712;2024-01-11T06:04:13;21.17;;;9.48;;
84638;SDS011;74869;51.924;5.712;2024-01-11T06:06:39;24.83;;;10.75;;
84638;SDS011;74869;51.924;5.712;2024-01-11T06:09:05;20.13;;;8.35;;
84638;SDS011;74869;51.924;5.712;2024-01-11T06:11:30;17.33;;;8.82;;
84638;SDS011;74869;51.924;5.712;2024-01-11T06:13:56;18.93;;;9.83;;
84638;SDS011;74869;51.924;5.712;2024-01-11T06:16:22;22.98;;;11.07;;
84638;SDS011;74869;51.924;5.712;2024-01-11T06:18:47;19.25;;;9.77;;
84638;SDS011;74869;51.924;5.712;2024-01-11T06:21:13;23.60;;;10.67;;
84638;SDS011;74869;51.924;5.712;2024-01-11T06:23:38;20.65;;;10.07;;
84638;SDS011;74869;51.924;5.712;2024-01-11T06:26:03;21.10;;;9.33;;
84638;SDS011;74869;51.924;5.712;2024-01-11T06:28:29;24.88;;;9.85;;
84638;SDS011;74869;51.924;5.712;2024-01-11T06:30:54;23.33;;;10.85;;
84638;SDS011;74869;51.924;5.712;2024-01-11T06:33:20;25.95;;;11.85;;
84638;SDS011;74869;51.924;5.712;2024-01-11T06:35:45;25.20;;;11.32;;
84638;SDS011;74869;51.924;5.712;2024-01-11T06:38:11;29.23;;;13.45;;
84638;SDS011;74869;51.924;5.712;2024-01-11T06:40:36;25.90;;;13.77;;
84638;SDS011;74869;51.924;5.712;2024-01-11T06:43:01;31.13;;;14.70;;
84638;SDS011;74869;51.924;5.712;2024-01-11T06:45:27;27.52;;;11.63;;
84638;SDS011;74869;51.924;5.712;2024-01-11T06:47:52;28.83;;;13.23;;
84638;SDS011;74869;51.924;5.712;2024-01-11T06:50:18;25.42;;;11.57;;
84638;SDS011;74869;51.924;5.712;2024-01-11T06:52:43;29.35;;;11.73;;
84638;SDS011;74869;51.924;5.712;2024-01-11T06:55:09;25.85;;;13.65;;
84638;SDS011;74869;51.924;5.712;2024-01-11T06:57:35;28.08;;;12.70;;
84638;SDS011;74869;51.924;5.712;2024-01-11T07:00:01;23.58;;;12.15;;
84638;SDS011;74869;51.924;5.712;2024-01-11T07:02:27;26.35;;;10.82;;
84638;SDS011;74869;51.924;5.712;2024-01-11T07:04:52;23.87;;;11.60;;
84638;SDS011;74869;51.924;5.712;2024-01-11T07:07:18;32.80;;;14.05;;
84638;SDS011;74869;51.924;5.712;2024-01-11T07:09:43;32.47;;;14.17;;
84638;SDS011;74869;51.924;5.712;2024-01-11T07:12:09;33.15;;;14.35;;
84638;SDS011;74869;51.924;5.712;2024-01-11T07:14:35;32.13;;;14.63;;
84638;SDS011;74869;51.924;5.712;2024-01-11T07:17:00;36.38;;;13.32;;
84638;SDS011;74869;51.924;5.712;2024-01-11T07:19:26;24.33;;;11.47;;
84638;SDS011;74869;51.924;5.712;2024-01-11T07:21:51;30.73;;;13.25;;
84638;SDS011;74869;51.924;5.712;2024-01-11T07:24:16;28.60;;;14.23;;
84638;SDS011;74869;51.924;5.712;2024-01-11T07:26:43;28.77;;;13.52;;
84638;SDS011;74869;51.924;5.712;2024-01-11T07:29:09;28.85;;;12.88;;
84638;SDS011;74869;51.924;5.712;2024-01-11T07:31:34;30.55;;;13.55;;
84638;SDS011;74869;51.924;5.712;2024-01-11T07:33:59;31.90;;;12.73;;
84638;SDS011;74869;51.924;5.712;2024-01-11T07:36:25;29.57;;;12.87;;
84638;SDS011;74869;51.924;5.712;2024-01-11T07:38:50;22.90;;;12.70;;
84638;SDS011;74869;51.924;5.712;2024-01-11T07:41:15;31.30;;;13.15;;
84638;SDS011;74869;51.924;5.712;2024-01-11T07:43:41;28.42;;;14.65;;
84638;SDS011;74869;51.924;5.712;2024-01-11T07:46:06;30.27;;;11.73;;
84638;SDS011;74869;51.924;5.712;2024-01-11T07:48:32;36.45;;;14.48;;
84638;SDS011;74869;51.924;5.712;2024-01-11T07:50:59;29.83;;;12.95;;
84638;SDS011;74869;51.924;5.712;2024-01-11T07:53:24;28.27;;;12.85;;
84638;SDS011;74869;51.924;5.712;2024-01-11T07:55:50;31.55;;;13.80;;
84638;SDS011;74869;51.924;5.712;2024-01-11T07:58:16;26.50;;;12.98;;
84638;SDS011;74869;51.924;5.712;2024-01-11T08:00:41;34.63;;;13.87;;
84638;SDS011;74869;51.924;5.712;2024-01-11T08:03:06;32.40;;;15.07;;
84638;SDS011;74869;51.924;5.712;2024-01-11T08:05:33;30.27;;;12.90;;
84638;SDS011;74869;51.924;5.712;2024-01-11T08:07:59;24.35;;;11.85;;
84638;SDS011;74869;51.924;5.712;2024-01-11T08:10:26;33.45;;;14.02;;
84638;SDS011;74869;51.924;5.712;2024-01-11T08:12:52;30.92;;;14.07;;
84638;SDS011;74869;51.924;5.712;2024-01-11T08:15:17;28.27;;;14.40;;
84638;SDS011;74869;51.924;5.712;2024-01-11T08:17:45;30.87;;;13.97;;
84638;SDS011;74869;51.924;5.712;2024-01-11T08:20:11;26.00;;;13.55;;
84638;SDS011;74869;51.924;5.712;2024-01-11T08:22:37;31.65;;;14.73;;
84638;SDS011;74869;51.924;5.712;2024-01-11T08:25:04;32.55;;;14.45;;
84638;SDS011;74869;51.924;5.712;2024-01-11T08:27:31;31.17;;;14.50;;
84638;SDS011;74869;51.924;5.712;2024-01-11T08:29:57;31.10;;;14.65;;
84638;SDS011;74869;51.924;5.712;2024-01-11T08:32:22;31.02;;;15.02;;
84638;SDS011;74869;51.924;5.712;2024-01-11T08:34:47;30.60;;;14.73;;
84638;SDS011;74869;51.924;5.712;2024-01-11T08:37:13;29.77;;;14.53;;
84638;SDS011;74869;51.924;5.712;2024-01-11T08:39:39;33.25;;;13.93;;
84638;SDS011;74869;51.924;5.712;2024-01-11T08:42:05;36.05;;;16.30;;
84638;SDS011;74869;51.924;5.712;2024-01-11T08:44:30;38.40;;;17.08;;
84638;SDS011;74869;51.924;5.712;2024-01-11T08:46:56;39.28;;;18.73;;
84638;SDS011;74869;51.924;5.712;2024-01-11T08:49:22;39.30;;;17.23;;
84638;SDS011;74869;51.924;5.712;2024-01-11T08:51:47;31.98;;;14.65;;
84638;SDS011;74869;51.924;5.712;2024-01-11T08:54:13;33.58;;;15.98;;
84638;SDS011;74869;51.924;5.712;2024-01-11T08:56:41;37.78;;;16.10;;
84638;SDS011;74869;51.924;5.712;2024-01-11T08:59:07;36.25;;;16.27;;
84638;SDS011;74869;51.924;5.712;2024-01-11T09:01:33;36.65;;;17.25;;
84638;SDS011;74869;51.924;5.712;2024-01-11T09:04:00;37.88;;;14.95;;
84638;SDS011;74869;51.924;5.712;2024-01-11T09:06:26;32.42;;;15.75;;
84638;SDS011;74869;51.924;5.712;2024-01-11T09:08:52;38.92;;;17.02;;
84638;SDS011;74869;51.924;5.712;2024-01-11T09:11:18;35.78;;;16.48;;
84638;SDS011;74869;51.924;5.712;2024-01-11T09:13:43;31.70;;;15.07;;
84638;SDS011;74869;51.924;5.712;2024-01-11T09:16:08;39.88;;;18.33;;
84638;SDS011;74869;51.924;5.712;2024-01-11T09:18:34;34.92;;;15.23;;
84638;SDS011;74869;51.924;5.712;2024-01-11T09:21:00;37.90;;;18.73;;
84638;SDS011;74869;51.924;5.712;2024-01-11T09:23:25;34.57;;;15.10;;
84638;SDS011;74869;51.924;5.712;2024-01-11T09:25:50;34.20;;;15.07;;
84638;SDS011;74869;51.924;5.712;2024-01-11T09:28:16;35.07;;;16.37;;
84638;SDS011;74869;51.924;5.712;2024-01-11T09:30:41;30.08;;;13.88;;
84638;SDS011;74869;51.924;5.712;2024-01-11T09:33:06;33.33;;;15.53;;
84638;SDS011;74869;51.924;5.712;2024-01-11T09:35:32;35.25;;;16.30;;
84638;SDS011;74869;51.924;5.712;2024-01-11T09:37:57;35.65;;;16.65;;
84638;SDS011;74869;51.924;5.712;2024-01-11T09:40:23;37.50;;;19.00;;
84638;SDS011;74869;51.924;5.712;2024-01-11T09:42:48;37.90;;;16.58;;
84638;SDS011;74869;51.924;5.712;2024-01-11T09:45:15;31.52;;;16.02;;
84638;SDS011;74869;51.924;5.712;2024-01-11T09:47:41;35.45;;;17.10;;
84638;SDS011;74869;51.924;5.712;2024-01-11T09:50:10;30.80;;;15.75;;
84638;SDS011;74869;51.924;5.712;2024-01-11T09:52:42;35.35;;;16.13;;
84638;SDS011;74869;51.924;5.712;2024-01-11T09:55:13;41.58;;;17.48;;
84638;SDS011;74869;51.924;5.712;2024-01-11T09:57:40;34.40;;;16.47;;
84638;SDS011;74869;51.924;5.712;2024-01-11T10:02:34;31.40;;;14.65;;
84638;SDS011;74869;51.924;5.712;2024-01-11T10:04:59;37.17;;;16.33;;
84638;SDS011;74869;51.924;5.712;2024-01-11T10:07:25;34.23;;;15.47;;
84638;SDS011;74869;51.924;5.712;2024-01-11T10:09:50;41.92;;;16.75;;
84638;SDS011;74869;51.924;5.712;2024-01-11T10:12:19;34.17;;;15.20;;
84638;SDS011;74869;51.924;5.712;2024-01-11T10:14:48;35.58;;;17.45;;
84638;SDS011;74869;51.924;5.712;2024-01-11T10:17:14;31.05;;;15.32;;
84638;SDS011;74869;51.924;5.712;2024-01-11T10:19:39;33.80;;;16.27;;
84638;SDS011;74869;51.924;5.712;2024-01-11T10:22:05;32.88;;;16.33;;
84638;SDS011;74869;51.924;5.712;2024-01-11T10:24:31;39.58;;;18.80;;
84638;SDS011;74869;51.924;5.712;2024-01-11T10:26:57;35.03;;;15.18;;
84638;SDS011;74869;51.924;5.712;2024-01-11T10:29:30;33.50;;;15.65;;
84638;SDS011;74869;51.924;5.712;2024-01-11T10:31:56;33.75;;;16.70;;
84638;SDS011;74869;51.924;5.712;2024-01-11T10:34:23;31.00;;;15.15;;
84638;SDS011;74869;51.924;5.712;2024-01-11T10:36:48;33.35;;;15.63;;
84638;SDS011;74869;51.924;5.712;2024-01-11T10:39:15;31.38;;;14.77;;
84638;SDS011;74869;51.924;5.712;2024-01-11T10:41:42;32.22;;;15.80;;
84638;SDS011;74869;51.924;5.712;2024-01-11T10:44:21;37.67;;;17.80;;
84638;SDS011;74869;51.924;5.712;2024-01-11T10:46:47;27.88;;;15.40;;
84638;SDS011;74869;51.924;5.712;2024-01-11T10:49:16;29.38;;;13.88;;
84638;SDS011;74869;51.924;5.712;2024-01-11T10:51:44;31.98;;;14.52;;
84638;SDS011;74869;51.924;5.712;2024-01-11T10:54:14;36.92;;;17.48;;
84638;SDS011;74869;51.924;5.712;2024-01-11T10:56:40;32.90;;;15.90;;
84638;SDS011;74869;51.924;5.712;2024-01-11T10:59:09;31.15;;;14.93;;
84638;SDS011;74869;51.924;5.712;2024-01-11T11:01:36;37.30;;;15.52;;
84638;SDS011;74869;51.924;5.712;2024-01-11T11:04:04;29.98;;;13.27;;
84638;SDS011;74869;51.924;5.712;2024-01-11T11:06:31;31.70;;;15.45;;
84638;SDS011;74869;51.924;5.712;2024-01-11T11:08:57;28.50;;;13.32;;
84638;SDS011;74869;51.924;5.712;2024-01-11T11:11:24;29.15;;;12.55;;
84638;SDS011;74869;51.924;5.712;2024-01-11T11:13:49;25.38;;;13.63;;
84638;SDS011;74869;51.924;5.712;2024-01-11T11:16:16;19.38;;;9.60;;
84638;SDS011;74869;51.924;5.712;2024-01-11T11:18:41;24.20;;;9.30;;
84638;SDS011;74869;51.924;5.712;2024-01-11T11:21:10;22.65;;;8.98;;
84638;SDS011;74869;51.924;5.712;2024-01-11T11:23:36;20.27;;;7.53;;
84638;SDS011;74869;51.924;5.712;2024-01-11T11:26:02;20.88;;;8.77;;
84638;SDS011;74869;51.924;5.712;2024-01-11T11:28:30;27.20;;;9.02;;
84638;SDS011;74869;51.924;5.712;2024-01-11T11:30:59;23.17;;;7.82;;
84638;SDS011;74869;51.924;5.712;2024-01-11T11:33:25;24.25;;;9.27;;
84638;SDS011;74869;51.924;5.712;2024-01-11T11:35:55;26.92;;;9.50;;
84638;SDS011;74869;51.924;5.712;2024-01-11T11:38:24;25.85;;;9.35;;
84638;SDS011;74869;51.924;5.712;2024-01-11T11:40:52;24.98;;;9.95;;
84638;SDS011;74869;51.924;5.712;2024-01-11T11:43:18;23.00;;;8.82;;
84638;SDS011;74869;51.924;5.712;2024-01-11T11:45:49;29.20;;;9.73;;
84638;SDS011;74869;51.924;5.712;2024-01-11T11:53:35;23.33;;;8.40;;
84638;SDS011;74869;51.924;5.712;2024-01-11T11:58:31;20.73;;;7.65;;
84638;SDS011;74869;51.924;5.712;2024-01-11T12:00:58;26.80;;;9.63;;
84638;SDS011;74869;51.924;5.712;2024-01-11T12:03:31;26.33;;;9.77;;
84638;SDS011;74869;51.924;5.712;2024-01-11T12:06:02;26.67;;;9.05;;
84638;SDS011;74869;51.924;5.712;2024-01-11T12:08:28;25.88;;;8.88;;
84638;SDS011;74869;51.924;5.712;2024-01-11T12:10:54;28.00;;;9.40;;
84638;SDS011;74869;51.924;5.712;2024-01-11T12:13:20;25.10;;;8.25;;
84638;SDS011;74869;51.924;5.712;2024-01-11T12:15:46;22.13;;;7.97;;
84638;SDS011;74869;51.924;5.712;2024-01-11T12:18:12;25.35;;;8.80;;
84638;SDS011;74869;51.924;5.712;2024-01-11T12:20:37;31.77;;;10.55;;
84638;SDS011;74869;51.924;5.712;2024-01-11T12:23:03;26.15;;;10.05;;
84638;SDS011;74869;51.924;5.712;2024-01-11T12:25:28;24.92;;;10.18;;
84638;SDS011;74869;51.924;5.712;2024-01-11T12:27:54;26.15;;;10.95;;
84638;SDS011;74869;51.924;5.712;2024-01-11T12:30:21;24.08;;;9.48;;
84638;SDS011;74869;51.924;5.712;2024-01-11T12:32:48;28.10;;;9.82;;
84638;SDS011;74869;51.924;5.712;2024-01-11T12:35:14;30.33;;;10.38;;
84638;SDS011;74869;51.924;5.712;2024-01-11T12:37:40;25.25;;;10.00;;
84638;SDS011;74869;51.924;5.712;2024-01-11T12:40:05;32.90;;;11.10;;
84638;SDS011;74869;51.924;5.712;2024-01-11T12:42:34;29.10;;;11.27;;
84638;SDS011;74869;51.924;5.712;2024-01-11T12:45:00;29.63;;;10.50;;
84638;SDS011;74869;51.924;5.712;2024-01-11T12:47:25;29.73;;;10.88;;
84638;SDS011;74869;51.924;5.712;2024-01-11T12:49:50;23.30;;;9.13;;
84638;SDS011;74869;51.924;5.712;2024-01-11T12:52:17;29.40;;;9.63;;
84638;SDS011;74869;51.924;5.712;2024-01-11T12:54:44;26.60;;;10.80;;
84638;SDS011;74869;51.924;5.712;2024-01-11T12:57:20;25.88;;;10.80;;
84638;SDS011;74869;51.924;5.712;2024-01-11T12:59:45;23.98;;;9.07;;
84638;SDS011;74869;51.924;5.712;2024-01-11T13:02:11;26.65;;;10.35;;
84638;SDS011;74869;51.924;5.712;2024-01-11T13:04:40;24.88;;;9.45;;
84638;SDS011;74869;51.924;5.712;2024-01-11T13:07:06;23.20;;;9.77;;
84638;SDS011;74869;51.924;5.712;2024-01-11T13:09:32;21.63;;;8.75;;
84638;SDS011;74869;51.924;5.712;2024-01-11T13:11:58;26.23;;;8.75;;
84638;SDS011;74869;51.924;5.712;2024-01-11T13:14:23;27.80;;;10.18;;
84638;SDS011;74869;51.924;5.712;2024-01-11T13:16:49;23.70;;;8.77;;
84638;SDS011;74869;51.924;5.712;2024-01-11T13:19:14;24.88;;;9.75;;
84638;SDS011;74869;51.924;5.712;2024-01-11T13:21:40;21.75;;;9.27;;
84638;SDS011;74869;51.924;5.712;2024-01-11T13:24:06;25.92;;;9.35;;
84638;SDS011;74869;51.924;5.712;2024-01-11T13:26:32;23.60;;;9.05;;
84638;SDS011;74869;51.924;5.712;2024-01-11T13:28:58;22.58;;;9.27;;
84638;SDS011;74869;51.924;5.712;2024-01-11T13:31:24;25.83;;;8.88;;
84638;SDS011;74869;51.924;5.712;2024-01-11T13:33:49;27.95;;;9.90;;
84638;SDS011;74869;51.924;5.712;2024-01-11T13:36:15;24.35;;;9.70;;
84638;SDS011;74869;51.924;5.712;2024-01-11T13:38:40;26.08;;;9.80;;
84638;SDS011;74869;51.924;5.712;2024-01-11T13:41:06;24.70;;;9.57;;
84638;SDS011;74869;51.924;5.712;2024-01-11T13:43:33;23.95;;;9.50;;
84638;SDS011;74869;51.924;5.712;2024-01-11T13:46:00;28.05;;;9.43;;
84638;SDS011;74869;51.924;5.712;2024-01-11T13:48:25;20.95;;;8.48;;
84638;SDS011;74869;51.924;5.712;2024-01-11T13:50:51;19.23;;;7.67;;
84638;SDS011;74869;51.924;5.712;2024-01-11T13:53:16;21.50;;;8.73;;
84638;SDS011;74869;51.924;5.712;2024-01-11T13:55:41;19.98;;;8.60;;
84638;SDS011;74869;51.924;5.712;2024-01-11T13:58:07;21.55;;;8.70;;
84638;SDS011;74869;51.924;5.712;2024-01-11T14:00:33;23.02;;;9.90;;
84638;SDS011;74869;51.924;5.712;2024-01-11T14:02:58;21.80;;;8.27;;
84638;SDS011;74869;51.924;5.712;2024-01-11T14:05:24;25.47;;;8.33;;
84638;SDS011;74869;51.924;5.712;2024-01-11T14:07:50;18.80;;;8.80;;
84638;SDS011;74869;51.924;5.712;2024-01-11T14:10:19;24.77;;;9.90;;
84638;SDS011;74869;51.924;5.712;2024-01-11T14:12:44;25.97;;;9.57;;
84638;SDS011;74869;51.924;5.712;2024-01-11T14:15:10;27.40;;;10.57;;
84638;SDS011;74869;51.924;5.712;2024-01-11T14:17:38;26.88;;;10.07;;
84638;SDS011;74869;51.924;5.712;2024-01-11T14:20:04;23.15;;;9.43;;
84638;SDS011;74869;51.924;5.712;2024-01-11T14:22:34;24.63;;;9.70;;
84638;SDS011;74869;51.924;5.712;2024-01-11T14:24:59;23.37;;;9.70;;
84638;SDS011;74869;51.924;5.712;2024-01-11T14:27:25;25.40;;;9.57;;
84638;SDS011;74869;51.924;5.712;2024-01-11T14:29:51;20.43;;;9.10;;
84638;SDS011;74869;51.924;5.712;2024-01-11T14:32:17;25.02;;;9.00;;
84638;SDS011;74869;51.924;5.712;2024-01-11T14:34:43;23.42;;;9.35;;
84638;SDS011;74869;51.924;5.712;2024-01-11T14:37:11;25.08;;;9.55;;